Time;durP1;ratioP1;P1;durP2;ratioP2;P2;SDS_P1;SDS_P2;PMS_P1;PMS_P2;Temp;Humidity;BMP_temperature;BMP_pressure;BME280_temperature;BME280_humidity;BME280_pressure;Samples;Min_cycle;Max_cycle;Signal;HPM_P1;HPM_P2
2023/04/17 00:00:36;;;;;;;7.00;4.65;;;8.30;99.90;;;;;;5062580;28;20025;-58
2023/04/17 00:03:02;;;;;;;5.35;4.60;;;8.30;99.90;;;;;;5058141;28;20447;-58
2023/04/17 00:05:30;;;;;;;5.43;4.18;;;8.30;99.90;;;;;;5057945;28;20029;-57
2023/04/17 00:07:58;;;;;;;5.25;4.57;;;8.30;99.90;;;;;;5057506;28;20029;-57
2023/04/17 00:10:24;;;;;;;5.65;4.60;;;8.30;99.90;;;;;;5063186;28;20027;-56
2023/04/17 00:12:50;;;;;;;4.97;4.57;;;8.40;99.90;;;;;;5059237;28;20029;-59
2023/04/17 00:15:15;;;;;;;4.82;3.95;;;8.40;99.90;;;;;;5057752;28;20048;-59
2023/04/17 00:17:41;;;;;;;4.60;4.13;;;8.40;99.90;;;;;;5060130;28;20112;-58
2023/04/17 00:20:13;;;;;;;5.43;4.28;;;8.40;99.90;;;;;;5059204;28;20028;-58
2023/04/17 00:22:39;;;;;;;4.90;4.43;;;8.40;99.90;;;;;;5057340;28;20558;-58
2023/04/17 00:25:05;;;;;;;4.68;4.28;;;8.40;99.90;;;;;;5063306;28;20067;-58
2023/04/17 00:27:31;;;;;;;5.28;4.13;;;8.40;99.90;;;;;;5057833;28;20070;-59
2023/04/17 00:29:57;;;;;;;5.10;4.70;;;8.40;99.90;;;;;;5061767;28;20515;-58
2023/04/17 00:32:22;;;;;;;4.68;4.13;;;8.40;99.90;;;;;;5059135;28;20020;-58
2023/04/17 00:34:49;;;;;;;4.43;3.90;;;8.40;99.90;;;;;;5060736;28;20033;-58
2023/04/17 00:37:15;;;;;;;6.63;4.90;;;8.40;99.90;;;;;;5057903;28;20139;-59
2023/04/17 00:39:41;;;;;;;5.00;4.43;;;8.30;99.90;;;;;;5056505;28;20167;-58
2023/04/17 00:42:06;;;;;;;4.70;4.30;;;8.40;99.90;;;;;;5061155;28;21080;-59
2023/04/17 00:44:32;;;;;;;6.28;4.93;;;8.40;99.90;;;;;;5060353;28;20038;-57
2023/04/17 00:46:58;;;;;;;6.95;4.80;;;8.40;99.90;;;;;;5060676;28;20033;-58
2023/04/17 00:49:25;;;;;;;4.68;4.28;;;8.40;99.90;;;;;;5058409;28;20032;-59
2023/04/17 00:51:52;;;;;;;6.18;4.35;;;8.40;99.90;;;;;;5057758;28;20376;-59
2023/04/17 00:54:19;;;;;;;4.78;4.15;;;8.40;99.90;;;;;;5056694;28;20567;-58
2023/04/17 00:56:45;;;;;;;4.90;4.40;;;8.40;99.90;;;;;;5054459;28;20029;-58
2023/04/17 00:59:12;;;;;;;4.70;4.00;;;8.40;99.90;;;;;;5059999;28;20028;-58
2023/04/17 01:01:37;;;;;;;4.80;4.40;;;8.40;99.90;;;;;;5057378;28;20021;-58
2023/04/17 01:04:04;;;;;;;5.90;3.50;;;8.40;99.90;;;;;;5059482;28;20591;-58
2023/04/17 01:06:30;;;;;;;4.25;3.85;;;8.40;99.90;;;;;;5058027;28;20115;-58
2023/04/17 01:08:56;;;;;;;5.10;4.28;;;8.30;99.90;;;;;;5057336;28;20036;-57
2023/04/17 01:11:22;;;;;;;4.85;4.22;;;8.30;99.90;;;;;;5058415;28;20572;-56
2023/04/17 01:13:49;;;;;;;5.03;4.55;;;8.30;99.90;;;;;;5061901;28;20039;-58
2023/04/17 01:16:15;;;;;;;4.97;4.47;;;8.40;99.90;;;;;;5058488;28;20087;-57
2023/04/17 01:18:41;;;;;;;5.00;4.50;;;8.30;99.90;;;;;;5057578;28;20036;-56
2023/04/17 01:21:07;;;;;;;7.30;6.63;;;8.40;99.90;;;;;;5055221;28;20041;-55
2023/04/17 01:24:01;;;;;;;6.75;6.15;;;8.40;99.90;;;;;;5056830;28;20031;-57
2023/04/17 01:26:29;;;;;;;6.57;5.90;;;8.50;99.90;;;;;;5055427;28;20044;-56
2023/04/17 01:28:56;;;;;;;8.00;7.28;;;8.60;99.90;;;;;;5056259;28;20031;-56
2023/04/17 01:31:23;;;;;;;5.95;5.35;;;8.60;99.90;;;;;;5060243;28;20029;-57
2023/04/17 01:33:49;;;;;;;7.30;6.57;;;8.60;99.90;;;;;;5056592;28;20050;-58
2023/04/17 01:36:16;;;;;;;7.63;6.93;;;8.60;99.90;;;;;;5056963;28;20041;-58
2023/04/17 01:38:42;;;;;;;6.85;5.75;;;8.60;99.90;;;;;;5060682;28;20708;-57
2023/04/17 01:41:10;;;;;;;6.80;6.18;;;8.60;99.90;;;;;;5056266;28;20108;-57
2023/04/17 01:43:41;;;;;;;7.63;6.88;;;8.50;99.90;;;;;;5056258;28;20025;-58
2023/04/17 01:46:06;;;;;;;6.15;5.65;;;8.50;99.90;;;;;;5055413;28;20025;-58
2023/04/17 01:48:33;;;;;;;7.10;6.40;;;8.50;99.90;;;;;;5058668;28;20367;-59
2023/04/17 01:50:59;;;;;;;6.82;6.22;;;8.40;99.90;;;;;;5057493;28;20699;-58
2023/04/17 01:53:25;;;;;;;7.90;6.50;;;8.40;99.90;;;;;;5058293;28;20029;-57
2023/04/17 01:55:50;;;;;;;7.80;7.05;;;8.40;99.90;;;;;;5059225;28;20032;-57
2023/04/17 01:58:16;;;;;;;8.00;7.20;;;8.40;99.90;;;;;;5055637;28;20374;-58
2023/04/17 02:00:45;;;;;;;6.63;5.97;;;8.40;99.90;;;;;;5058305;28;20021;-58
2023/04/17 02:03:10;;;;;;;7.03;6.38;;;8.40;99.90;;;;;;5059860;28;20089;-59
2023/04/17 02:05:36;;;;;;;7.13;6.53;;;8.40;99.90;;;;;;5056813;28;20115;-57
2023/04/17 02:08:02;;;;;;;6.78;6.18;;;8.40;99.90;;;;;;5058120;28;20025;-58
2023/04/17 02:10:27;;;;;;;7.63;6.93;;;8.40;99.90;;;;;;5056481;28;20029;-59
2023/04/17 02:12:53;;;;;;;7.50;6.70;;;8.40;99.90;;;;;;5059302;28;20028;-58
2023/04/17 02:15:18;;;;;;;7.45;6.68;;;8.50;99.90;;;;;;5058710;28;20527;-58
2023/04/17 02:17:44;;;;;;;7.45;6.75;;;8.50;99.90;;;;;;5058787;28;20054;-58
2023/04/17 02:20:10;;;;;;;7.00;6.32;;;8.50;99.90;;;;;;5059599;28;20040;-56
2023/04/17 02:22:36;;;;;;;14.20;9.05;;;8.50;99.90;;;;;;5058270;28;20024;-58
2023/04/17 02:25:01;;;;;;;10.52;6.75;;;8.50;99.90;;;;;;5056673;28;20083;-58
2023/04/17 02:27:28;;;;;;;7.43;6.68;;;8.50;99.90;;;;;;5058652;28;20474;-59
2023/04/17 02:29:54;;;;;;;9.05;6.95;;;8.50;99.90;;;;;;5057167;28;20025;-59
2023/04/17 02:32:20;;;;;;;7.70;6.97;;;8.40;99.90;;;;;;5058454;28;20047;-59
2023/04/17 02:34:45;;;;;;;8.10;7.30;;;8.40;99.90;;;;;;5054873;28;20113;-58
2023/04/17 02:37:11;;;;;;;8.18;7.38;;;8.40;99.90;;;;;;5057298;28;20081;-58
2023/04/17 02:39:37;;;;;;;7.22;6.53;;;8.40;99.90;;;;;;5058888;28;20106;-58
2023/04/17 02:42:03;;;;;;;7.90;7.03;;;8.40;99.90;;;;;;5063556;28;20167;-58
2023/04/17 02:44:29;;;;;;;7.95;7.15;;;8.50;99.90;;;;;;5062234;28;20032;-58
2023/04/17 02:46:54;;;;;;;8.65;7.80;;;8.50;99.90;;;;;;5060559;28;20033;-59
2023/04/17 02:49:20;;;;;;;8.10;7.30;;;8.60;99.90;;;;;;5061438;28;20572;-58
2023/04/17 02:51:46;;;;;;;10.05;8.40;;;8.60;99.90;;;;;;5060839;28;20029;-56
2023/04/17 02:54:12;;;;;;;8.93;8.07;;;8.60;99.90;;;;;;5058635;28;20047;-58
2023/04/17 02:56:37;;;;;;;7.60;6.90;;;8.50;99.90;;;;;;5061576;28;20029;-59
2023/04/17 02:59:03;;;;;;;8.00;7.20;;;8.50;99.90;;;;;;5059992;28;20413;-58
2023/04/17 03:01:29;;;;;;;8.60;7.63;;;8.50;99.90;;;;;;5059563;28;20028;-58
2023/04/17 03:03:55;;;;;;;8.70;7.80;;;8.40;99.90;;;;;;5060730;28;20135;-58
2023/04/17 03:06:22;;;;;;;8.48;7.57;;;8.40;99.90;;;;;;5060363;28;20095;-60
2023/04/17 03:08:48;;;;;;;9.73;7.35;;;8.50;99.90;;;;;;5062715;28;20033;-59
2023/04/17 03:11:14;;;;;;;9.25;7.43;;;8.40;99.90;;;;;;5062665;28;20037;-57
2023/04/17 03:13:40;;;;;;;8.90;7.97;;;8.50;99.90;;;;;;5062035;28;20408;-58
2023/04/17 03:16:06;;;;;;;8.15;7.32;;;8.40;99.90;;;;;;5060173;28;20039;-57
2023/04/17 03:18:31;;;;;;;7.70;6.90;;;8.50;99.90;;;;;;5062253;28;20425;-59
2023/04/17 03:20:57;;;;;;;8.23;7.45;;;8.50;99.90;;;;;;5062354;28;20032;-58
2023/04/17 03:23:23;;;;;;;8.32;7.25;;;8.50;99.90;;;;;;5061602;28;20036;-57
2023/04/17 03:25:49;;;;;;;8.48;7.63;;;8.50;99.90;;;;;;5063370;28;20029;-58
2023/04/17 03:28:15;;;;;;;7.70;6.95;;;8.40;99.90;;;;;;5059353;28;20021;-57
2023/04/17 03:30:40;;;;;;;7.25;6.55;;;8.50;99.90;;;;;;5062783;28;20566;-58
2023/04/17 03:33:06;;;;;;;8.70;7.80;;;8.50;99.90;;;;;;5061564;28;20405;-57
2023/04/17 03:35:31;;;;;;;7.65;6.90;;;8.50;99.90;;;;;;5059954;28;20401;-57
2023/04/17 03:37:57;;;;;;;7.30;6.60;;;8.50;99.90;;;;;;5058561;28;20052;-58
2023/04/17 03:40:23;;;;;;;7.85;7.05;;;8.50;99.90;;;;;;5061149;28;20036;-58
2023/04/17 03:42:48;;;;;;;7.95;7.13;;;8.50;99.90;;;;;;5058226;28;20044;-57
2023/04/17 03:45:15;;;;;;;8.30;7.22;;;8.50;99.90;;;;;;5062318;28;20040;-57
2023/04/17 03:47:41;;;;;;;6.78;6.18;;;8.50;99.90;;;;;;5056358;28;20603;-56
2023/04/17 03:50:07;;;;;;;8.30;6.75;;;8.50;99.90;;;;;;5061380;28;20051;-58
2023/04/17 03:52:33;;;;;;;6.07;5.57;;;8.50;99.90;;;;;;5058584;28;20070;-57
2023/04/17 03:54:58;;;;;;;7.90;7.10;;;8.50;99.90;;;;;;5059355;28;20405;-56
2023/04/17 03:57:24;;;;;;;6.97;6.28;;;8.50;99.90;;;;;;5061947;28;20024;-56
2023/04/17 03:59:50;;;;;;;7.07;6.38;;;8.40;99.90;;;;;;5057813;28;20588;-57
2023/04/17 04:02:15;;;;;;;7.45;6.75;;;8.40;99.90;;;;;;5058254;28;20046;-57
2023/04/17 04:04:41;;;;;;;7.30;6.53;;;8.40;99.90;;;;;;5061648;28;20017;-57
2023/04/17 04:07:07;;;;;;;7.55;6.75;;;8.40;99.90;;;;;;5060917;28;20028;-57
2023/04/17 04:09:32;;;;;;;7.72;7.03;;;8.40;99.90;;;;;;5059504;28;20506;-57
2023/04/17 04:11:58;;;;;;;6.97;6.35;;;8.40;99.90;;;;;;5060016;28;20032;-57
2023/04/17 04:14:24;;;;;;;6.53;5.90;;;8.40;99.90;;;;;;5057144;28;20759;-57
2023/04/17 04:16:49;;;;;;;5.75;5.25;;;8.30;99.90;;;;;;5060583;28;20592;-58
2023/04/17 04:19:15;;;;;;;5.28;4.78;;;8.30;99.90;;;;;;5060006;28;20052;-57
2023/04/17 04:21:42;;;;;;;5.30;4.88;;;8.40;99.90;;;;;;5058101;28;20121;-58
2023/04/17 04:24:09;;;;;;;5.65;5.15;;;8.40;99.90;;;;;;5059262;28;20043;-57
2023/04/17 04:26:35;;;;;;;5.40;4.70;;;8.40;99.90;;;;;;5060745;28;20114;-58
2023/04/17 04:29:01;;;;;;;6.63;5.88;;;8.40;99.90;;;;;;5062696;28;20056;-58
2023/04/17 04:31:29;;;;;;;6.97;6.28;;;8.50;99.90;;;;;;5062041;28;20562;-58
2023/04/17 04:34:00;;;;;;;8.52;6.90;;;8.50;99.90;;;;;;5061677;28;20159;-57
2023/04/17 04:36:28;;;;;;;7.47;6.78;;;8.50;99.90;;;;;;5057132;28;20032;-57
2023/04/17 04:38:58;;;;;;;6.72;6.13;;;8.50;99.90;;;;;;5061142;28;20040;-58
2023/04/17 04:41:25;;;;;;;6.32;5.72;;;8.50;99.90;;;;;;5060157;28;20029;-58
2023/04/17 04:43:53;;;;;;;8.32;7.53;;;8.40;99.90;;;;;;5058994;28;20051;-58
2023/04/17 04:46:18;;;;;;;8.70;7.80;;;8.40;99.90;;;;;;5059118;28;20025;-56
2023/04/17 04:48:44;;;;;;;8.82;8.02;;;8.40;99.90;;;;;;5060117;28;20382;-57
2023/04/17 04:51:10;;;;;;;10.25;8.52;;;8.30;99.90;;;;;;5058347;28;20035;-57
2023/04/17 04:53:35;;;;;;;11.40;10.23;;;8.30;99.90;;;;;;5058782;28;20037;-57
2023/04/17 04:56:01;;;;;;;15.07;10.85;;;8.30;99.90;;;;;;5058797;28;20459;-58
2023/04/17 04:58:28;;;;;;;11.68;10.23;;;8.30;99.90;;;;;;5058296;28;20029;-58
2023/04/17 05:00:54;;;;;;;12.23;10.48;;;8.30;99.90;;;;;;5056641;28;20493;-58
2023/04/17 05:03:21;;;;;;;11.98;10.77;;;8.40;99.90;;;;;;5058093;28;20090;-58
2023/04/17 05:05:49;;;;;;;12.85;11.63;;;8.30;99.90;;;;;;5056655;28;20124;-58
2023/04/17 05:08:15;;;;;;;13.00;11.70;;;8.40;99.90;;;;;;5060858;28;20096;-57
2023/04/17 05:10:40;;;;;;;15.98;12.25;;;8.40;99.90;;;;;;5056944;28;20568;-58
2023/04/17 05:13:06;;;;;;;12.88;11.35;;;8.50;99.90;;;;;;5059383;28;20099;-57
2023/04/17 05:15:32;;;;;;;14.70;12.82;;;8.50;99.90;;;;;;5055568;28;20032;-58
2023/04/17 05:17:57;;;;;;;13.15;11.85;;;8.50;99.90;;;;;;5057479;28;20894;-57
2023/04/17 05:20:25;;;;;;;19.27;12.40;;;8.50;99.90;;;;;;5058270;28;20094;-58
2023/04/17 05:22:51;;;;;;;14.98;11.57;;;8.50;99.90;;;;;;5056546;28;20029;-57
2023/04/17 05:25:18;;;;;;;12.85;11.15;;;8.60;99.90;;;;;;5055970;28;20032;-59
2023/04/17 05:27:45;;;;;;;11.75;10.55;;;8.60;99.90;;;;;;5058200;28;20031;-58
2023/04/17 05:30:11;;;;;;;12.13;10.82;;;8.60;99.90;;;;;;5057762;28;20040;-59
2023/04/17 05:32:37;;;;;;;11.18;10.07;;;8.70;99.90;;;;;;5058926;28;20082;-57
2023/04/17 05:35:04;;;;;;;11.23;10.20;;;8.70;99.90;;;;;;5058128;28;20067;-58
2023/04/17 05:37:29;;;;;;;11.88;10.60;;;8.70;99.90;;;;;;5057702;28;20132;-57
2023/04/17 05:39:55;;;;;;;10.52;9.52;;;8.80;99.90;;;;;;5059417;28;20158;-57
2023/04/17 05:42:21;;;;;;;15.55;13.95;;;8.90;99.90;;;;;;5055791;28;20036;-58
2023/04/17 05:44:46;;;;;;;10.40;9.40;;;8.90;99.90;;;;;;5056800;28;20031;-58
2023/04/17 05:47:12;;;;;;;10.25;9.35;;;8.90;99.90;;;;;;5055251;28;20036;-59
2023/04/17 05:49:38;;;;;;;10.02;9.02;;;9.00;99.90;;;;;;5056945;28;20551;-58
2023/04/17 05:52:04;;;;;;;10.07;8.88;;;9.10;99.90;;;;;;5057634;28;20557;-59
2023/04/17 05:54:29;;;;;;;10.23;9.32;;;9.20;99.90;;;;;;5057056;28;20037;-56
2023/04/17 05:56:55;;;;;;;9.55;8.65;;;9.10;99.90;;;;;;5056836;28;20025;-58
2023/04/17 05:59:21;;;;;;;13.15;8.95;;;9.20;99.90;;;;;;5057980;28;20040;-57
2023/04/17 06:01:47;;;;;;;10.20;9.30;;;9.20;99.90;;;;;;5057358;28;20036;-58
2023/04/17 06:04:13;;;;;;;10.30;9.40;;;9.20;99.90;;;;;;5060923;28;20029;-57
2023/04/17 06:06:39;;;;;;;12.27;10.10;;;9.20;99.90;;;;;;5058655;28;20102;-57
2023/04/17 06:09:06;;;;;;;9.20;8.30;;;9.20;99.90;;;;;;5058624;28;20044;-56
2023/04/17 06:11:32;;;;;;;10.77;8.60;;;9.10;99.90;;;;;;5059728;28;20033;-56
2023/04/17 06:13:58;;;;;;;9.93;9.02;;;9.20;99.90;;;;;;5056500;28;20037;-58
2023/04/17 06:16:23;;;;;;;10.93;8.93;;;9.20;99.90;;;;;;5062427;28;20032;-58
2023/04/17 06:18:49;;;;;;;10.10;9.10;;;9.20;99.90;;;;;;5062198;28;20118;-57
2023/04/17 06:21:15;;;;;;;10.40;9.30;;;9.20;99.90;;;;;;5062479;28;20512;-59
2023/04/17 06:23:41;;;;;;;11.15;10.00;;;9.20;99.90;;;;;;5060683;28;20024;-57
2023/04/17 06:26:06;;;;;;;10.82;9.75;;;9.20;99.90;;;;;;5063462;28;20031;-57
2023/04/17 06:28:32;;;;;;;10.20;9.10;;;9.20;99.90;;;;;;5062998;28;20016;-57
2023/04/17 06:30:58;;;;;;;10.82;9.73;;;9.20;99.90;;;;;;5060903;28;20056;-56
2023/04/17 06:33:23;;;;;;;12.68;11.50;;;9.10;99.90;;;;;;5060510;28;20187;-57
2023/04/17 06:35:49;;;;;;;10.23;9.23;;;9.10;99.90;;;;;;5061075;28;20021;-56
2023/04/17 06:38:15;;;;;;;10.75;9.38;;;9.10;99.90;;;;;;5060411;28;20025;-56
2023/04/17 06:40:40;;;;;;;12.48;11.35;;;9.10;99.90;;;;;;5060417;28;20024;-58
2023/04/17 06:43:06;;;;;;;11.65;10.45;;;9.10;99.90;;;;;;5059902;28;20024;-58
2023/04/17 06:45:33;;;;;;;15.45;13.13;;;9.20;99.90;;;;;;5060552;28;20179;-57
2023/04/17 06:47:58;;;;;;;15.95;13.18;;;9.20;99.90;;;;;;5061236;28;20033;-58
2023/04/17 06:50:24;;;;;;;14.15;11.88;;;9.20;99.90;;;;;;5060705;28;20631;-59
2023/04/17 06:52:50;;;;;;;14.63;13.00;;;9.30;99.90;;;;;;5058692;28;20035;-58
2023/04/17 06:55:15;;;;;;;13.27;11.93;;;9.20;99.90;;;;;;5059772;28;20032;-58
2023/04/17 06:57:41;;;;;;;16.13;12.32;;;9.30;99.90;;;;;;5057459;28;20429;-57
2023/04/17 07:00:07;;;;;;;12.75;11.52;;;9.40;99.90;;;;;;5057275;28;20056;-58
2023/04/17 07:02:33;;;;;;;11.45;10.25;;;9.40;99.90;;;;;;5055281;28;20540;-58
2023/04/17 07:04:59;;;;;;;12.50;11.35;;;9.50;99.90;;;;;;5059463;28;20040;-58
2023/04/17 07:07:25;;;;;;;11.82;10.38;;;9.60;99.90;;;;;;5058874;28;20024;-57
2023/04/17 07:09:51;;;;;;;15.45;11.68;;;9.60;99.90;;;;;;5058480;28;20099;-59
2023/04/17 07:12:17;;;;;;;11.05;9.93;;;9.60;99.90;;;;;;5062333;28;20154;-59
2023/04/17 07:14:42;;;;;;;10.98;9.70;;;9.60;99.90;;;;;;5058681;28;20111;-57
2023/04/17 07:17:08;;;;;;;11.55;10.45;;;9.60;99.90;;;;;;5060447;28;20497;-57
2023/04/17 07:19:34;;;;;;;9.55;8.48;;;9.50;99.90;;;;;;5057764;28;20024;-57
2023/04/17 07:22:00;;;;;;;11.38;10.07;;;9.50;99.90;;;;;;5059023;28;20384;-58
2023/04/17 07:24:26;;;;;;;11.13;10.02;;;9.40;99.90;;;;;;5060833;28;20031;-59
2023/04/17 07:26:52;;;;;;;10.00;9.00;;;9.50;99.90;;;;;;5057645;28;20057;-59
2023/04/17 07:29:18;;;;;;;9.25;8.38;;;9.50;99.90;;;;;;5060191;28;20118;-59
2023/04/17 07:31:44;;;;;;;9.35;8.43;;;9.60;99.90;;;;;;5057877;28;20097;-58
2023/04/17 07:34:10;;;;;;;12.30;8.82;;;9.60;99.90;;;;;;5060715;28;20024;-58
2023/04/17 07:36:36;;;;;;;8.45;7.65;;;9.60;99.90;;;;;;5059558;28;20029;-59
2023/04/17 07:39:02;;;;;;;8.00;7.22;;;9.50;99.90;;;;;;5060269;28;20477;-58
2023/04/17 07:41:27;;;;;;;9.63;8.27;;;9.50;99.90;;;;;;5060827;28;20032;-59
2023/04/17 07:43:53;;;;;;;7.72;7.03;;;9.50;99.90;;;;;;5056864;28;20471;-58
2023/04/17 07:46:19;;;;;;;7.20;6.40;;;9.60;99.90;;;;;;5054592;28;20839;-58
2023/04/17 07:48:45;;;;;;;8.50;7.53;;;9.70;99.90;;;;;;5061840;28;20115;-58
2023/04/17 07:51:11;;;;;;;8.35;7.55;;;9.70;99.90;;;;;;5059080;28;20068;-58
2023/04/17 07:53:37;;;;;;;7.38;6.57;;;9.70;99.90;;;;;;5062259;28;20123;-58
2023/04/17 07:56:03;;;;;;;6.85;6.10;;;9.80;99.90;;;;;;5060064;28;20029;-57
2023/04/17 07:58:30;;;;;;;7.18;6.57;;;9.80;99.90;;;;;;5059758;28;20044;-58
2023/04/17 08:00:56;;;;;;;6.72;6.10;;;9.90;99.90;;;;;;5061449;28;20115;-59
2023/04/17 08:03:22;;;;;;;6.55;5.95;;;9.90;99.90;;;;;;5060882;28;20490;-58
2023/04/17 08:05:50;;;;;;;5.93;5.20;;;10.00;99.90;;;;;;5059234;28;20030;-59
2023/04/17 08:08:16;;;;;;;6.53;5.93;;;10.10;99.90;;;;;;5058979;28;20025;-58
2023/04/17 08:10:42;;;;;;;5.05;4.50;;;10.20;99.90;;;;;;5056710;28;20762;-58
2023/04/17 08:13:08;;;;;;;4.53;4.13;;;10.30;99.90;;;;;;5061153;28;20045;-58
2023/04/17 08:15:33;;;;;;;7.32;6.45;;;10.40;99.90;;;;;;5057085;28;20112;-58
2023/04/17 08:17:59;;;;;;;4.13;2.70;;;10.40;99.90;;;;;;5059243;28;20486;-57
2023/04/17 08:20:26;;;;;;;4.97;4.57;;;10.40;99.90;;;;;;5057493;28;20143;-57
2023/04/17 08:22:51;;;;;;;5.10;4.60;;;10.50;99.90;;;;;;5058651;28;20035;-59
2023/04/17 08:25:17;;;;;;;3.90;3.60;;;10.50;99.90;;;;;;5059942;28;20017;-58
2023/04/17 08:27:43;;;;;;;2.92;2.63;;;10.60;99.90;;;;;;5058895;28;20021;-58
2023/04/17 08:30:11;;;;;;;2.85;2.38;;;10.80;99.90;;;;;;5058684;28;20036;-58
2023/04/17 08:32:41;;;;;;;1.95;1.83;;;10.90;99.90;;;;;;5058303;28;20028;-58
2023/04/17 08:35:10;;;;;;;1.50;1.40;;;11.00;99.90;;;;;;5062939;28;20059;-58
2023/04/17 08:37:39;;;;;;;1.65;1.55;;;11.10;99.90;;;;;;5058435;28;20016;-59
2023/04/17 08:40:08;;;;;;;1.67;1.58;;;11.00;99.90;;;;;;5061589;28;20024;-58
2023/04/17 08:42:35;;;;;;;1.95;1.75;;;10.90;99.90;;;;;;5059992;28;20029;-56
2023/04/17 08:45:06;;;;;;;1.70;1.60;;;11.00;99.90;;;;;;5057107;28;20025;-58
2023/04/17 08:47:35;;;;;;;2.08;1.90;;;11.00;99.90;;;;;;5060289;28;20031;-58
2023/04/17 08:50:12;;;;;;;2.10;1.60;;;10.90;99.90;;;;;;5057282;28;20043;-58
2023/04/17 08:52:46;;;;;;;1.60;1.50;;;11.10;99.90;;;;;;5057104;28;20029;-57
2023/04/17 08:55:14;;;;;;;3.50;3.00;;;11.20;99.90;;;;;;5057921;28;20048;-58
2023/04/17 08:58:06;;;;;;;2.22;2.03;;;11.20;99.90;;;;;;5063146;28;20021;-58
2023/04/17 09:00:37;;;;;;;2.72;1.80;;;11.20;99.90;;;;;;5062520;28;20374;-58
2023/04/17 09:03:06;;;;;;;1.73;1.63;;;11.20;99.90;;;;;;5057698;28;20086;-57
2023/04/17 09:05:33;;;;;;;2.63;2.17;;;11.30;99.90;;;;;;5056995;28;20029;-56
2023/04/17 09:08:14;;;;;;;1.70;1.60;;;11.50;99.90;;;;;;5054899;28;20021;-59
2023/04/17 09:10:54;;;;;;;2.05;1.77;;;11.60;99.90;;;;;;5060127;28;20013;-57
2023/04/17 09:13:23;;;;;;;1.63;1.52;;;11.70;99.90;;;;;;5061222;28;20432;-58
2023/04/17 09:16:09;;;;;;;1.60;1.50;;;11.70;99.90;;;;;;5037787;28;20073;-57
2023/04/17 09:18:36;;;;;;;2.60;1.63;;;11.70;99.90;;;;;;5058906;28;20024;-58
2023/04/17 09:21:04;;;;;;;2.35;1.70;;;11.70;99.90;;;;;;5062090;28;20386;-59
2023/04/17 09:23:51;;;;;;;1.90;1.70;;;11.60;99.90;;;;;;5059434;28;20237;-57
2023/04/17 09:26:25;;;;;;;2.10;1.90;;;11.60;99.90;;;;;;5056546;28;20032;-57
2023/04/17 09:29:03;;;;;;;1.60;1.50;;;11.50;99.90;;;;;;5058278;28;20565;-58
2023/04/17 09:31:33;;;;;;;1.98;1.80;;;11.40;99.90;;;;;;5058963;28;20040;-59
2023/04/17 09:33:59;;;;;;;2.17;1.98;;;11.20;99.90;;;;;;5062155;28;20024;-58
2023/04/17 09:36:26;;;;;;;2.28;2.08;;;11.10;99.90;;;;;;5056072;28;20045;-58
2023/04/17 09:38:53;;;;;;;2.80;2.50;;;11.00;99.90;;;;;;5060067;28;20046;-57
2023/04/17 09:41:38;;;;;;;1.90;1.70;;;10.80;99.90;;;;;;5056898;28;20037;-59
2023/04/17 09:44:05;;;;;;;2.67;2.47;;;10.70;99.90;;;;;;5060217;28;20021;-57
2023/04/17 09:46:39;;;;;;;3.95;3.10;;;10.60;99.90;;;;;;5058058;28;20085;-57
2023/04/17 09:49:14;;;;;;;4.68;2.40;;;10.60;99.90;;;;;;5059175;28;20039;-57
2023/04/17 09:51:41;;;;;;;1.75;1.60;;;10.60;99.90;;;;;;5059899;28;20033;-58
2023/04/17 09:54:09;;;;;;;2.85;2.20;;;10.60;99.90;;;;;;5053928;28;20056;-58
2023/04/17 09:56:36;;;;;;;3.85;2.00;;;10.50;99.90;;;;;;5056766;28;20120;-57
2023/04/17 09:59:04;;;;;;;2.35;2.15;;;10.50;99.90;;;;;;5054871;28;20028;-57
2023/04/17 10:01:32;;;;;;;3.50;2.78;;;10.50;99.90;;;;;;5057610;28;20029;-58
2023/04/17 10:03:59;;;;;;;7.50;4.72;;;10.50;99.90;;;;;;5057973;28;20032;-58
2023/04/17 10:06:27;;;;;;;2.13;1.92;;;10.60;99.90;;;;;;5056917;28;20029;-58
2023/04/17 10:08:54;;;;;;;2.55;2.35;;;10.70;99.90;;;;;;5056109;28;20097;-58
2023/04/17 10:11:24;;;;;;;3.35;3.05;;;10.80;99.90;;;;;;5059221;28;20029;-57
2023/04/17 10:14:15;;;;;;;2.30;2.10;;;10.80;99.90;;;;;;5056368;28;20040;-59
2023/04/17 10:16:43;;;;;;;2.65;2.20;;;10.70;99.90;;;;;;5054329;28;20083;-57
2023/04/17 10:19:35;;;;;;;2.30;2.10;;;10.60;99.90;;;;;;5053969;28;20029;-57
2023/04/17 10:22:19;;;;;;;2.80;1.90;;;10.50;99.90;;;;;;5059790;28;20037;-57
2023/04/17 10:25:05;;;;;;;2.97;1.40;;;10.30;99.90;;;;;;5058822;28;20124;-57
2023/04/17 10:27:31;;;;;;;1.50;1.40;;;10.10;99.90;;;;;;5050438;28;20118;-57
2023/04/17 10:30:02;;;;;;;1.98;1.63;;;10.00;99.90;;;;;;5045283;28;20493;-58
2023/04/17 10:32:29;;;;;;;;;;;9.80;99.90;;;;;;5042077;28;20199;-58
2023/04/17 10:34:55;;;;;;;2.53;1.70;;;9.80;99.90;;;;;;5035100;28;19936;-59
2023/04/17 10:37:47;;;;;;;1.75;1.50;;;9.80;99.90;;;;;;5035985;28;20159;-58
2023/04/17 10:40:21;;;;;;;1.50;1.40;;;9.90;99.90;;;;;;5035514;28;20032;-59
2023/04/17 10:43:13;;;;;;;1.50;1.40;;;9.90;99.90;;;;;;5038144;28;20025;-57
2023/04/17 10:45:57;;;;;;;;;;;9.90;99.90;;;;;;5036982;28;20034;-59
2023/04/17 10:48:39;;;;;;;1.30;1.20;;;9.80;99.90;;;;;;5036238;28;19924;-58
2023/04/17 10:51:20;;;;;;;1.60;1.50;;;9.80;99.90;;;;;;5037922;28;20063;-58
2023/04/17 10:53:56;;;;;;;1.40;1.30;;;9.80;99.90;;;;;;5034606;28;20424;-57
2023/04/17 10:56:24;;;;;;;2.50;1.98;;;9.90;99.90;;;;;;5035138;28;20029;-57
2023/04/17 10:59:01;;;;;;;2.50;2.00;;;9.90;99.90;;;;;;5039353;28;20056;-58
2023/04/17 11:01:46;;;;;;;5.38;4.50;;;9.90;99.90;;;;;;5057720;28;20532;-57
2023/04/17 11:04:21;;;;;;;4.30;3.45;;;10.00;99.90;;;;;;5062834;28;20040;-57
2023/04/17 11:06:47;;;;;;;8.50;5.20;;;10.10;99.90;;;;;;5065372;28;20769;-58
2023/04/17 11:09:14;;;;;;;9.98;7.00;;;10.20;99.90;;;;;;5063433;28;20870;-56
2023/04/17 11:11:42;;;;;;;8.13;7.15;;;10.30;99.90;;;;;;5061459;28;20032;-57
2023/04/17 11:14:09;;;;;;;4.65;4.25;;;10.40;99.90;;;;;;5061630;28;20040;-57
2023/04/17 11:16:40;;;;;;;2.10;1.92;;;10.50;99.90;;;;;;5057400;28;20024;-59
2023/04/17 11:19:08;;;;;;;1.65;1.55;;;10.60;99.90;;;;;;5062658;28;20025;-58
2023/04/17 11:21:44;;;;;;;1.40;1.30;;;10.80;99.90;;;;;;5060258;28;20037;-58
2023/04/17 11:24:10;;;;;;;2.83;2.38;;;10.90;99.90;;;;;;5059477;28;20132;-58
2023/04/17 11:26:45;;;;;;;2.60;1.58;;;11.00;99.90;;;;;;5059668;28;20025;-58
2023/04/17 11:29:19;;;;;;;1.80;1.70;;;10.90;99.90;;;;;;5066244;28;20132;-56
2023/04/17 11:31:45;;;;;;;1.50;1.40;;;10.90;99.90;;;;;;5060552;28;20032;-57
2023/04/17 11:34:14;;;;;;;2.25;1.33;;;10.90;99.90;;;;;;5062387;28;20397;-57
2023/04/17 11:36:47;;;;;;;2.15;1.30;;;10.90;99.90;;;;;;5060907;28;20033;-57
2023/04/17 11:39:14;;;;;;;2.05;1.88;;;10.80;99.90;;;;;;5062489;28;20036;-57
2023/04/17 11:41:43;;;;;;;1.90;1.65;;;10.80;99.90;;;;;;5062502;28;20028;-57
2023/04/17 11:44:09;;;;;;;1.70;1.60;;;10.80;99.90;;;;;;5057248;28;20068;-58
2023/04/17 11:46:35;;;;;;;1.77;1.60;;;10.70;99.90;;;;;;5060988;28;20095;-57
2023/04/17 11:49:07;;;;;;;2.13;1.90;;;10.70;99.90;;;;;;5060999;28;20022;-57
2023/04/17 11:51:33;;;;;;;2.13;1.55;;;10.70;99.90;;;;;;5058950;28;20029;-58
2023/04/17 11:53:59;;;;;;;2.58;2.38;;;10.70;99.90;;;;;;5061135;28;20035;-58
2023/04/17 11:56:29;;;;;;;3.17;2.75;;;10.70;99.90;;;;;;5060223;28;20059;-57
2023/04/17 11:58:57;;;;;;;1.88;1.70;;;10.70;99.90;;;;;;5060697;28;20028;-56
2023/04/17 12:01:27;;;;;;;2.75;2.55;;;10.60;99.90;;;;;;5060596;28;20028;-57
2023/04/17 12:03:57;;;;;;;2.83;2.58;;;10.50;99.90;;;;;;5059238;28;20449;-57
2023/04/17 12:06:23;;;;;;;2.30;2.10;;;10.40;99.90;;;;;;5060175;28;20029;-56
2023/04/17 12:11:29;;;;;;;3.33;2.65;;;10.30;99.90;;;;;;5073337;23;20047;-57
2023/04/17 12:13:55;;;;;;;3.22;2.92;;;10.30;99.90;;;;;;4969697;28;20035;-57
2023/04/17 12:16:23;;;;;;;2.40;2.20;;;10.50;99.90;;;;;;4970241;28;20038;-57
2023/04/17 12:18:49;;;;;;;2.60;2.40;;;10.60;99.90;;;;;;4968853;28;20043;-58
2023/04/17 12:21:15;;;;;;;3.28;2.92;;;10.60;99.90;;;;;;4971013;28;20077;-58
2023/04/17 12:23:41;;;;;;;2.50;2.30;;;10.50;99.90;;;;;;4969820;28;20050;-57
2023/04/17 12:26:07;;;;;;;2.38;2.17;;;10.50;99.90;;;;;;4969248;28;20066;-56
2023/04/17 12:28:33;;;;;;;2.53;2.33;;;10.50;99.90;;;;;;4970893;28;20474;-56
2023/04/17 12:30:59;;;;;;;2.30;2.00;;;10.40;99.90;;;;;;4969498;28;20073;-57
2023/04/17 12:33:25;;;;;;;4.07;3.70;;;10.40;99.90;;;;;;4968994;28;20587;-58
2023/04/17 12:35:50;;;;;;;4.90;3.33;;;10.50;99.90;;;;;;4968258;28;20034;-57
2023/04/17 12:38:16;;;;;;;3.17;2.17;;;10.40;99.90;;;;;;4950207;28;20046;-59
2023/04/17 12:40:43;;;;;;;2.53;2.08;;;10.40;99.90;;;;;;4968395;28;20042;-57
2023/04/17 12:43:12;;;;;;;2.47;2.28;;;10.40;99.90;;;;;;4970063;28;20023;-58
2023/04/17 12:45:38;;;;;;;3.38;3.03;;;10.40;99.90;;;;;;4969463;28;20031;-58
2023/04/17 12:48:06;;;;;;;3.58;3.25;;;10.30;99.90;;;;;;4969629;28;20078;-58
2023/04/17 12:50:32;;;;;;;5.10;3.88;;;10.30;99.90;;;;;;4969919;28;20069;-58
2023/04/17 12:52:58;;;;;;;4.05;3.65;;;10.20;99.90;;;;;;4970005;28;20557;-58
2023/04/17 12:55:27;;;;;;;4.15;3.75;;;10.10;99.90;;;;;;4970446;28;20081;-58